createdAt,value
2022-11-20T00:00:54.544Z,128
2022-11-20T00:02:01.902Z,127
2022-11-20T00:03:10.112Z,131
2022-11-20T00:04:19.127Z,121
2022-11-20T00:05:26.749Z,122
2022-11-20T00:06:33.685Z,121
2022-11-20T00:07:40.864Z,116
2022-11-20T00:08:48.420Z,115
2022-11-20T00:09:55.931Z,121
2022-11-20T00:11:03.316Z,116
2022-11-20T00:12:16.622Z,115
2022-11-20T00:13:25.147Z,116
2022-11-20T00:14:32.532Z,110
2022-11-20T00:15:39.780Z,113
2022-11-20T00:16:46.784Z,114
2022-11-20T00:17:53.868Z,110
2022-11-20T00:19:00.959Z,113
2022-11-20T00:20:08.112Z,110
2022-11-20T00:21:15.852Z,108
2022-11-20T00:22:22.847Z,116
2022-11-20T00:23:30.079Z,121
2022-11-20T00:24:41.741Z,113
2022-11-20T00:25:45.491Z,115
2022-11-20T00:26:52.719Z,115
2022-11-20T00:28:00.087Z,118
2022-11-20T00:29:07.352Z,117
2022-11-20T00:30:15.089Z,119
2022-11-20T00:31:22.073Z,124
2022-11-20T00:32:29.265Z,118
2022-11-20T00:33:36.581Z,119
2022-11-20T00:34:43.684Z,117
2022-11-20T00:35:50.727Z,123
2022-11-20T00:36:57.841Z,112
2022-11-20T00:38:04.947Z,107
2022-11-20T00:39:12.166Z,107
2022-11-20T00:40:20.551Z,109
2022-11-20T00:41:28.991Z,109
2022-11-20T00:42:37.715Z,105
2022-11-20T00:43:44.728Z,108
2022-11-20T00:44:52.672Z,104
2022-11-20T00:46:00.271Z,108
2022-11-20T00:47:10.464Z,104
2022-11-20T00:48:17.559Z,104
2022-11-20T00:49:24.707Z,104
2022-11-20T00:50:31.651Z,101
2022-11-20T00:51:38.925Z,100
2022-11-20T00:52:46.475Z,96
2022-11-20T00:53:53.822Z,98
2022-11-20T00:55:01.034Z,94
2022-11-20T00:56:08.597Z,99
2022-11-20T00:57:15.623Z,98
2022-11-20T00:58:22.806Z,99
2022-11-20T00:59:30.027Z,106
2022-11-20T01:00:37.345Z,109
2022-11-20T01:01:45.593Z,108
2022-11-20T01:02:52.913Z,109
2022-11-20T01:04:00.364Z,114
2022-11-20T01:05:07.795Z,113
2022-11-20T01:06:15.171Z,115
2022-11-20T01:07:27.711Z,119
2022-11-20T01:08:34.830Z,119
2022-11-20T01:09:42.187Z,116
2022-11-20T01:10:49.722Z,123
2022-11-20T01:11:57.683Z,123
2022-11-20T01:13:04.854Z,115
2022-11-20T01:14:17.233Z,121
2022-11-20T01:15:24.494Z,123
2022-11-20T01:16:31.564Z,126
2022-11-20T01:17:39.686Z,122
2022-11-20T01:18:47.143Z,125
2022-11-20T01:19:54.535Z,126
2022-11-20T01:21:01.602Z,122
2022-11-20T01:22:11.960Z,121
2022-11-20T01:23:19.886Z,131
2022-11-20T01:24:27.250Z,119
2022-11-20T01:25:34.394Z,120
2022-11-20T01:26:41.454Z,117
2022-11-20T01:27:48.482Z,115
2022-11-20T01:28:55.574Z,118
2022-11-20T01:30:02.804Z,119
2022-11-20T01:31:10.375Z,124
2022-11-20T01:32:19.983Z,121
2022-11-20T01:33:27.270Z,114
2022-11-20T01:34:34.272Z,119
2022-11-20T01:35:42.435Z,118
2022-11-20T01:36:49.673Z,118
2022-11-20T01:37:56.803Z,117
2022-11-20T01:39:04.047Z,122
2022-11-20T01:40:16.404Z,119
2022-11-20T01:41:23.359Z,115
2022-11-20T01:42:35.742Z,117
2022-11-20T01:43:51.297Z,116
2022-11-20T01:44:58.891Z,115
2022-11-20T01:46:06.182Z,116
2022-11-20T01:47:18.703Z,117
2022-11-20T01:48:34.267Z,116
2022-11-20T01:49:41.642Z,121
2022-11-20T01:50:48.982Z,118
2022-11-20T01:51:56.886Z,122
2022-11-20T01:53:04.190Z,125
2022-11-20T01:54:11.574Z,117
2022-11-20T01:55:23.595Z,123
2022-11-20T01:56:30.807Z,125
2022-11-20T01:57:37.912Z,117
2022-11-20T01:58:44.894Z,122
2022-11-20T01:59:52.115Z,122
2022-11-20T02:00:59.680Z,118
2022-11-20T02:02:06.898Z,117
2022-11-20T02:03:14.404Z,118
2022-11-20T02:04:21.223Z,122
2022-11-20T02:05:28.296Z,114
2022-11-20T02:06:43.303Z,114
2022-11-20T02:07:55.457Z,119
2022-11-20T02:09:02.463Z,118
2022-11-20T02:10:10.100Z,116
2022-11-20T02:11:17.311Z,122
2022-11-20T02:12:24.447Z,121
2022-11-20T02:13:36.796Z,122
2022-11-20T02:14:49.402Z,121
2022-11-20T02:15:56.690Z,124
2022-11-20T02:17:03.830Z,113
2022-11-20T02:18:11.943Z,108
2022-11-20T02:19:19.767Z,118
2022-11-20T02:20:29.435Z,118
2022-11-20T02:21:36.901Z,112
2022-11-20T02:22:49.902Z,115
2022-11-20T02:24:05.752Z,117
2022-11-20T02:25:15.722Z,118
2022-11-20T02:26:22.999Z,124
2022-11-20T02:27:29.989Z,115
2022-11-20T02:28:37.307Z,116
2022-11-20T02:29:44.368Z,113
2022-11-20T02:30:56.551Z,112
2022-11-20T02:32:04.614Z,109
2022-11-20T02:33:12.014Z,108
2022-11-20T02:34:19.003Z,101
2022-11-20T02:35:26.862Z,105
2022-11-20T02:36:33.627Z,101
2022-11-20T02:37:40.891Z,99
2022-11-20T02:38:48.031Z,94
2022-11-20T02:39:55.099Z,91
2022-11-20T02:41:02.450Z,93
2022-11-20T02:42:09.539Z,93
2022-11-20T02:43:17.646Z,87
2022-11-20T02:44:24.966Z,83
2022-11-20T02:45:31.983Z,79
2022-11-20T02:46:39.052Z,85
2022-11-20T02:47:46.258Z,75
2022-11-20T02:48:53.399Z,69
2022-11-20T02:50:00.562Z,72
2022-11-20T02:51:07.510Z,71
2022-11-20T02:52:14.776Z,60
2022-11-20T02:53:21.921Z,71
2022-11-20T02:54:29.219Z,67
2022-11-20T02:55:36.226Z,65
2022-11-20T02:56:43.420Z,64
2022-11-20T02:57:50.491Z,61
2022-11-20T02:58:57.659Z,57
2022-11-20T03:00:04.990Z,60
2022-11-20T03:01:12.836Z,60
2022-11-20T03:02:20.491Z,61
2022-11-20T03:03:27.804Z,57
2022-11-20T03:04:34.887Z,65
2022-11-20T03:05:42.034Z,55
2022-11-20T03:06:49.080Z,62
2022-11-20T03:07:56.272Z,58
2022-11-20T03:09:03.488Z,67
2022-11-20T03:10:10.454Z,55
2022-11-20T03:11:17.642Z,65
2022-11-20T03:12:24.759Z,59
2022-11-20T03:13:32.046Z,60
2022-11-20T03:14:38.979Z,55
2022-11-20T03:15:46.222Z,54
2022-11-20T03:16:53.360Z,52
2022-11-20T03:18:00.344Z,53
2022-11-20T03:19:08.047Z,43
2022-11-20T03:20:15.974Z,48
2022-11-20T03:21:23.074Z,41
2022-11-20T03:22:30.215Z,42
2022-11-20T03:23:37.058Z,46
2022-11-20T03:24:44.254Z,48
2022-11-20T03:25:51.498Z,45
2022-11-20T03:26:58.475Z,44
2022-11-20T03:28:05.686Z,45
2022-11-20T03:29:12.774Z,45
2022-11-20T03:30:20.102Z,46
2022-11-20T03:31:27.013Z,48
2022-11-20T03:32:35.886Z,50
2022-11-20T03:33:42.826Z,63
2022-11-20T03:34:50.050Z,57
2022-11-20T03:35:57.107Z,56
2022-11-20T03:37:07.342Z,56
2022-11-20T03:38:14.671Z,56
2022-11-20T03:39:21.976Z,64
2022-11-20T03:40:28.853Z,64
2022-11-20T03:41:37.007Z,68
2022-11-20T03:42:44.199Z,64
2022-11-20T03:43:51.366Z,67
2022-11-20T03:45:00.915Z,78
2022-11-20T03:46:08.110Z,68
2022-11-20T03:47:15.394Z,72
2022-11-20T03:48:22.475Z,61
2022-11-20T03:49:29.495Z,66
2022-11-20T03:50:36.674Z,71
2022-11-20T03:51:43.866Z,66
2022-11-20T03:52:51.095Z,78
2022-11-20T03:53:58.079Z,69
2022-11-20T03:55:05.262Z,78
2022-11-20T03:56:12.566Z,73
2022-11-20T03:57:20.522Z,79
2022-11-20T03:58:27.658Z,76
2022-11-20T03:59:35.138Z,73
2022-11-20T04:00:42.922Z,74
2022-11-20T04:01:51.632Z,72
2022-11-20T04:02:58.967Z,74
2022-11-20T04:04:06.288Z,75
2022-11-20T04:05:13.854Z,73
2022-11-20T04:06:21.780Z,64
2022-11-20T04:07:29.008Z,64
2022-11-20T04:08:35.978Z,68
2022-11-20T04:09:43.822Z,77
2022-11-20T04:10:50.885Z,76
2022-11-20T04:11:57.935Z,76
2022-11-20T04:13:05.262Z,71
2022-11-20T04:14:12.454Z,71
2022-11-20T04:15:19.406Z,67
2022-11-20T04:16:26.530Z,65
2022-11-20T04:17:33.702Z,72
2022-11-20T04:18:41.562Z,63
2022-11-20T04:19:48.925Z,69
2022-11-20T04:20:55.923Z,67
2022-11-20T04:22:03.140Z,62
2022-11-20T04:23:13.046Z,66
2022-11-20T04:24:20.086Z,65
2022-11-20T04:25:27.111Z,67
2022-11-20T04:26:34.462Z,73
2022-11-20T04:27:41.454Z,69
2022-11-20T04:28:48.709Z,72
2022-11-20T04:29:55.690Z,74
2022-11-20T04:31:02.978Z,79
2022-11-20T04:32:15.018Z,70
2022-11-20T04:33:22.223Z,75
2022-11-20T04:34:29.315Z,73
2022-11-20T04:35:36.487Z,66
2022-11-20T04:36:43.555Z,71
2022-11-20T04:37:50.890Z,70
2022-11-20T04:38:57.750Z,65
2022-11-20T04:40:04.930Z,67
2022-11-20T04:41:12.455Z,60
2022-11-20T04:42:19.735Z,59
2022-11-20T04:43:32.760Z,64
2022-11-20T04:44:40.134Z,62
2022-11-20T04:45:47.265Z,70
2022-11-20T04:46:58.383Z,77
2022-11-20T04:48:05.654Z,85
2022-11-20T04:49:13.052Z,102
2022-11-20T04:50:20.069Z,130
2022-11-20T04:51:27.406Z,125
2022-11-20T04:52:34.725Z,118
2022-11-20T04:53:43.601Z,116
2022-11-20T04:54:50.574Z,121
2022-11-20T04:56:01.141Z,113
2022-11-20T04:57:13.066Z,119
2022-11-20T04:58:15.434Z,120
2022-11-20T04:59:23.177Z,117
2022-11-20T05:00:29.702Z,117
2022-11-20T05:01:36.877Z,117
2022-11-20T05:02:43.954Z,109
2022-11-20T05:03:51.195Z,110
2022-11-20T05:04:58.802Z,107
2022-11-20T05:06:06.378Z,100
2022-11-20T05:07:14.770Z,92
2022-11-20T05:08:21.786Z,89
2022-11-20T05:09:28.910Z,81
2022-11-20T05:10:36.446Z,84
2022-11-20T05:11:44.310Z,76
2022-11-20T05:12:51.078Z,71
2022-11-20T05:13:57.905Z,72
2022-11-20T05:15:05.146Z,69
2022-11-20T05:16:12.422Z,64
2022-11-20T05:17:19.317Z,66
2022-11-20T05:18:26.626Z,62
2022-11-20T05:19:33.853Z,62
2022-11-20T05:20:40.879Z,59
2022-11-20T05:21:49.787Z,51
2022-11-20T05:22:57.136Z,50
2022-11-20T05:24:04.209Z,51
2022-11-20T05:25:11.294Z,62
2022-11-20T05:26:18.525Z,57
2022-11-20T05:27:25.913Z,52
2022-11-20T05:28:32.970Z,50
2022-11-20T05:29:40.034Z,49
2022-11-20T05:30:47.229Z,49
2022-11-20T05:31:54.421Z,46
2022-11-20T05:33:01.306Z,52
2022-11-20T05:34:08.422Z,53
2022-11-20T05:35:15.581Z,54
2022-11-20T05:36:22.734Z,46
2022-11-20T05:37:29.856Z,54
2022-11-20T05:38:37.146Z,53
2022-11-20T05:39:44.149Z,44
2022-11-20T05:40:51.562Z,50
2022-11-20T05:41:58.926Z,44
2022-11-20T05:43:11.193Z,39
2022-11-20T05:44:18.598Z,33
2022-11-20T05:45:26.043Z,40
2022-11-20T05:46:33.058Z,36
2022-11-20T05:47:40.202Z,28
2022-11-20T05:48:47.250Z,31
2022-11-20T05:49:55.589Z,33
2022-11-20T05:51:02.486Z,33
2022-11-20T05:52:09.689Z,32
2022-11-20T05:53:16.862Z,35
2022-11-20T05:54:24.965Z,33
2022-11-20T05:55:32.158Z,26
2022-11-20T05:56:39.246Z,27
2022-11-20T05:57:46.441Z,27
2022-11-20T05:58:53.638Z,25
2022-11-20T06:00:00.694Z,33
2022-11-20T06:01:07.841Z,25
2022-11-20T06:02:21.016Z,34
2022-11-20T06:03:29.090Z,33
2022-11-20T06:04:37.198Z,34
2022-11-20T06:05:44.454Z,34
2022-11-20T06:06:51.653Z,39
2022-11-20T06:07:58.742Z,46
2022-11-20T06:09:06.933Z,37
2022-11-20T06:10:14.030Z,40
2022-11-20T06:11:21.377Z,42
2022-11-20T06:12:29.159Z,30
2022-11-20T06:13:40.719Z,35
2022-11-20T06:14:43.722Z,32
2022-11-20T06:15:50.963Z,32
2022-11-20T06:16:58.185Z,31
2022-11-20T06:18:05.191Z,35
2022-11-20T06:19:12.261Z,25
2022-11-20T06:20:19.469Z,25
2022-11-20T06:21:26.461Z,34
2022-11-20T06:22:33.718Z,25
2022-11-20T06:23:40.990Z,27
2022-11-20T06:24:47.970Z,25
2022-11-20T06:25:55.893Z,27
2022-11-20T06:27:02.766Z,32
2022-11-20T06:28:09.797Z,30
2022-11-20T06:29:17.157Z,28
2022-11-20T06:30:24.045Z,33
2022-11-20T06:31:31.217Z,34
2022-11-20T06:32:38.255Z,36
2022-11-20T06:33:45.443Z,34
2022-11-20T06:34:52.574Z,33
2022-11-20T06:36:01.772Z,29
2022-11-20T06:37:07.121Z,25
2022-11-20T06:38:14.045Z,32
2022-11-20T06:39:21.386Z,39
2022-11-20T06:40:28.477Z,30
2022-11-20T06:41:35.677Z,31
2022-11-20T06:42:44.109Z,33
2022-11-20T06:43:51.495Z,27
2022-11-20T06:44:58.474Z,29
2022-11-20T06:46:06.012Z,34
2022-11-20T06:47:13.197Z,37
2022-11-20T06:48:20.390Z,30
2022-11-20T06:49:27.831Z,26
2022-11-20T06:50:35.193Z,33
2022-11-20T06:51:42.235Z,36
2022-11-20T06:52:53.813Z,33
2022-11-20T06:54:01.677Z,37
2022-11-20T06:55:09.011Z,29
2022-11-20T06:56:16.767Z,33
2022-11-20T06:57:24.018Z,30
2022-11-20T06:58:31.198Z,27
2022-11-20T06:59:38.353Z,33
2022-11-20T07:00:46.564Z,34
2022-11-20T07:01:53.689Z,35
2022-11-20T07:03:00.738Z,34
2022-11-20T07:04:13.649Z,33
2022-11-20T07:05:20.695Z,32
2022-11-20T07:06:28.771Z,38
2022-11-20T07:07:35.928Z,39
2022-11-20T07:08:43.969Z,33
2022-11-20T07:09:51.705Z,32
2022-11-20T07:10:59.005Z,39
2022-11-20T07:12:06.453Z,31
2022-11-20T07:13:13.441Z,39
2022-11-20T07:14:21.585Z,43
2022-11-20T07:15:28.918Z,54
2022-11-20T07:16:35.981Z,55
2022-11-20T07:17:43.207Z,63
2022-11-20T07:18:51.212Z,52
2022-11-20T07:19:57.274Z,55
2022-11-20T07:21:05.291Z,49
2022-11-20T07:22:12.222Z,46
2022-11-20T07:23:19.322Z,54
2022-11-20T07:24:26.665Z,57
2022-11-20T07:25:34.243Z,49
2022-11-20T07:26:42.369Z,56
2022-11-20T07:27:49.409Z,45
2022-11-20T07:28:57.722Z,55
2022-11-20T07:30:05.169Z,52
2022-11-20T07:31:17.540Z,52
2022-11-20T07:32:20.341Z,53
2022-11-20T07:33:27.791Z,51
2022-11-20T07:34:34.941Z,51
2022-11-20T07:35:41.941Z,52
2022-11-20T07:36:49.917Z,51
2022-11-20T07:37:57.526Z,46
2022-11-20T07:39:07.333Z,53
2022-11-20T07:40:14.725Z,56
2022-11-20T07:41:21.589Z,53
2022-11-20T07:42:28.738Z,57
2022-11-20T07:43:40.927Z,63
2022-11-20T07:44:44.901Z,67
2022-11-20T07:45:53.338Z,66
2022-11-20T07:47:00.685Z,62
2022-11-20T07:48:07.897Z,60
2022-11-20T07:49:15.157Z,61
2022-11-20T07:50:24.019Z,62
2022-11-20T07:51:31.065Z,62
2022-11-20T07:52:39.897Z,62
2022-11-20T07:53:48.229Z,76
2022-11-20T07:54:55.588Z,70
2022-11-20T07:56:02.790Z,63
2022-11-20T07:57:10.099Z,66
2022-11-20T07:58:17.278Z,63
2022-11-20T07:59:24.600Z,65
2022-11-20T08:00:31.813Z,64
2022-11-20T08:01:40.133Z,63
2022-11-20T08:02:47.530Z,63
2022-11-20T08:03:54.461Z,66
2022-11-20T08:05:01.596Z,69
2022-11-20T08:06:09.165Z,65
2022-11-20T08:07:16.640Z,65
2022-11-20T08:08:23.689Z,80
2022-11-20T08:09:31.837Z,70
2022-11-20T08:10:38.867Z,73
2022-11-20T08:11:46.373Z,82
2022-11-20T08:12:59.781Z,75
2022-11-20T08:14:12.021Z,81
2022-11-20T08:15:19.026Z,73
2022-11-20T08:16:26.361Z,83
2022-11-20T08:17:33.414Z,78
2022-11-20T08:18:41.464Z,80
2022-11-20T08:19:50.262Z,85
2022-11-20T08:20:57.418Z,84
2022-11-20T08:22:08.416Z,78
2022-11-20T08:23:15.681Z,80
2022-11-20T08:24:24.297Z,83
2022-11-20T08:25:31.888Z,94
2022-11-20T08:26:39.085Z,96
2022-11-20T08:27:46.380Z,88
2022-11-20T08:28:53.413Z,88
2022-11-20T08:30:00.809Z,91
2022-11-20T08:31:08.526Z,89
2022-11-20T08:32:15.877Z,91
2022-11-20T08:33:25.677Z,93
2022-11-20T08:34:33.177Z,86
2022-11-20T08:35:41.153Z,89
2022-11-20T08:36:49.712Z,93
2022-11-20T08:37:59.098Z,99
2022-11-20T08:39:07.922Z,99
2022-11-20T08:40:19.668Z,94
2022-11-20T08:41:25.210Z,93
2022-11-20T08:42:32.465Z,101
2022-11-20T08:43:40.957Z,99
2022-11-20T08:44:48.441Z,100
2022-11-20T08:45:55.678Z,101
2022-11-20T08:47:03.809Z,95
2022-11-20T08:48:11.989Z,100
2022-11-20T08:49:19.389Z,101
2022-11-20T08:50:27.178Z,102
2022-11-20T08:51:37.721Z,107
2022-11-20T08:52:45.256Z,102
2022-11-20T08:53:52.482Z,103
2022-11-20T08:54:59.853Z,103
2022-11-20T08:56:07.953Z,100
2022-11-20T08:57:15.530Z,100
2022-11-20T08:58:22.746Z,99
2022-11-20T09:00:04.170Z,100
2022-11-20T09:00:37.576Z,106
2022-11-20T09:01:44.841Z,100
2022-11-20T09:02:53.452Z,92
2022-11-20T09:04:00.775Z,102
2022-11-20T09:05:09.085Z,98
2022-11-20T09:06:16.254Z,100
2022-11-20T09:07:23.543Z,102
2022-11-20T09:08:31.669Z,98
2022-11-20T09:09:40.845Z,97
2022-11-20T09:10:48.123Z,97
2022-11-20T09:11:59.540Z,98
2022-11-20T09:13:06.741Z,103
2022-11-20T09:14:13.906Z,93
2022-11-20T09:15:20.973Z,94
2022-11-20T09:16:28.409Z,91
2022-11-20T09:17:36.001Z,92
2022-11-20T09:18:44.885Z,84
2022-11-20T09:19:52.180Z,87
2022-11-20T09:20:59.900Z,73
2022-11-20T09:22:07.727Z,73
2022-11-20T09:23:15.644Z,72
2022-11-20T09:24:22.819Z,69
2022-11-20T09:25:30.761Z,75
2022-11-20T09:26:37.909Z,71
2022-11-20T09:27:46.072Z,67
2022-11-20T09:28:56.944Z,73
2022-11-20T09:30:01.270Z,78
2022-11-20T09:31:08.605Z,75
2022-11-20T09:32:24.804Z,69
2022-11-20T09:33:33.025Z,71
2022-11-20T09:34:40.580Z,77
2022-11-20T09:35:47.788Z,73
2022-11-20T09:36:55.709Z,68
2022-11-20T09:38:03.556Z,67
2022-11-20T09:39:10.904Z,76
2022-11-20T09:40:18.376Z,71
2022-11-20T09:41:25.969Z,58
2022-11-20T09:42:43.641Z,63
2022-11-20T09:43:58.593Z,62
2022-11-20T09:45:11.821Z,59
2022-11-20T09:46:33.328Z,67
2022-11-20T09:47:41.579Z,72
2022-11-20T09:48:57.393Z,64
2022-11-20T09:50:15.177Z,48
2022-11-20T09:51:32.823Z,45
2022-11-20T09:52:52.729Z,52
2022-11-20T09:54:04.749Z,45
2022-11-20T09:55:19.902Z,46
2022-11-20T09:56:27.504Z,25
2022-11-20T09:57:35.496Z,40
2022-11-20T09:58:43.828Z,31
2022-11-20T09:59:52.366Z,27
2022-11-20T10:01:02.698Z,37
2022-11-20T10:02:13.821Z,33
2022-11-20T10:03:24.164Z,38
2022-11-20T10:04:41.789Z,29
2022-11-20T10:05:49.094Z,25
2022-11-20T10:07:30.123Z,28
2022-11-20T10:08:12.315Z,30
2022-11-20T10:09:24.466Z,26
2022-11-20T10:10:36.565Z,37
2022-11-20T10:11:47.981Z,41
2022-11-20T10:13:01.153Z,35
2022-11-20T10:14:16.149Z,37
2022-11-20T10:15:31.228Z,33
2022-11-20T10:16:41.099Z,36
2022-11-20T10:17:52.538Z,26
2022-11-20T10:19:04.988Z,41
2022-11-20T10:20:18.438Z,25
2022-11-20T10:21:26.465Z,32
2022-11-20T10:22:44.069Z,36
2022-11-20T10:23:59.093Z,36
2022-11-20T10:25:16.513Z,33
2022-11-20T10:26:24.088Z,26
2022-11-20T10:27:36.517Z,42
2022-11-20T10:28:57.350Z,32
2022-11-20T10:30:04.844Z,29
2022-11-20T10:31:14.440Z,30
2022-11-20T10:32:31.804Z,25
2022-11-20T10:33:57.380Z,25
2022-11-20T10:34:46.563Z,25
2022-11-20T10:35:59.048Z,28
2022-11-20T10:37:13.604Z,36
2022-11-20T10:38:23.945Z,37
2022-11-20T10:39:36.571Z,38
2022-11-20T10:40:44.736Z,36
2022-11-20T10:41:57.929Z,25
2022-11-20T10:43:04.977Z,34
2022-11-20T10:44:15.480Z,30
2022-11-20T10:45:33.201Z,32
2022-11-20T10:46:45.788Z,29
2022-11-20T10:50:22.367Z,29
2022-11-20T10:51:28.812Z,32
2022-11-20T10:52:37.273Z,39
2022-11-20T10:53:55.412Z,37
2022-11-20T10:55:07.736Z,46
2022-11-20T10:56:25.158Z,40
2022-11-20T10:57:43.258Z,34
2022-11-20T10:58:59.024Z,45
2022-11-20T11:00:16.298Z,42
2022-11-20T11:01:24.039Z,53
2022-11-20T11:02:31.421Z,39
2022-11-20T11:03:45.053Z,38
2022-11-20T11:04:52.028Z,51
2022-11-20T11:05:59.437Z,50
2022-11-20T11:07:12.233Z,35
2022-11-20T11:08:25.577Z,29
2022-11-20T11:09:35.640Z,37
2022-11-20T11:10:48.664Z,42
2022-11-20T11:12:06.901Z,40
2022-11-20T11:13:12.056Z,34
2022-11-20T11:14:24.605Z,36
2022-11-20T11:15:31.945Z,33
2022-11-20T11:16:43.068Z,40
2022-11-20T11:17:56.352Z,37
2022-11-20T11:19:03.661Z,29
2022-11-20T11:20:16.876Z,51
2022-11-20T11:21:28.393Z,35
2022-11-20T11:22:35.932Z,44
2022-11-20T11:23:48.697Z,39
2022-11-20T11:25:06.424Z,41
2022-11-20T11:26:13.961Z,34
2022-11-20T11:27:24.789Z,26
2022-11-20T11:28:32.413Z,29
2022-11-20T11:29:40.288Z,29
2022-11-20T11:30:48.741Z,25
2022-11-20T11:31:57.053Z,30
2022-11-20T11:33:09.429Z,30
2022-11-20T11:34:17.688Z,38
2022-11-20T11:35:25.018Z,34
2022-11-20T11:36:32.321Z,26
2022-11-20T11:37:40.492Z,28
2022-11-20T11:38:48.126Z,32
2022-11-20T11:40:16.378Z,32
2022-11-20T11:41:03.116Z,30
2022-11-20T11:42:11.480Z,40
2022-11-20T11:43:18.966Z,44
2022-11-20T11:44:31.664Z,37
2022-11-20T11:45:44.248Z,29
2022-11-20T11:46:52.303Z,48
2022-11-20T11:48:00.764Z,34
2022-11-20T11:49:08.188Z,25
2022-11-20T11:50:15.436Z,30
2022-11-20T11:51:26.377Z,35
2022-11-20T11:52:33.905Z,28
2022-11-20T11:53:51.477Z,25
2022-11-20T11:55:00.393Z,36
2022-11-20T11:56:07.604Z,26
2022-11-20T11:57:16.012Z,46
2022-11-20T11:58:31.080Z,30
2022-11-20T11:59:44.340Z,29
2022-11-20T12:01:01.103Z,31
2022-11-20T12:02:14.546Z,37
2022-11-20T12:03:29.886Z,34
2022-11-20T12:04:43.554Z,27
2022-11-20T12:05:53.959Z,37
2022-11-20T12:07:18.499Z,33
2022-11-20T12:08:18.189Z,25
2022-11-20T12:09:35.432Z,28
2022-11-20T12:10:43.052Z,29
2022-11-20T12:12:01.109Z,35
2022-11-20T12:13:16.532Z,34
2022-11-20T12:14:34.320Z,32
2022-11-20T12:15:46.277Z,40
2022-11-20T12:16:53.766Z,25
2022-11-20T12:18:00.714Z,27
2022-11-20T12:19:08.153Z,34
2022-11-20T12:20:15.777Z,44
2022-11-20T12:21:23.234Z,41
2022-11-20T12:22:36.724Z,40
2022-11-20T12:23:49.226Z,31
2022-11-20T12:24:59.343Z,35
2022-11-20T12:26:15.985Z,33
2022-11-20T12:27:25.900Z,35
2022-11-20T12:28:41.446Z,31
2022-11-20T12:29:53.976Z,30
2022-11-20T12:31:06.656Z,37
2022-11-20T12:32:24.357Z,43
2022-11-20T12:33:42.629Z,38
2022-11-20T12:34:55.800Z,45
2022-11-20T12:36:13.413Z,37
2022-11-20T12:37:30.334Z,39
2022-11-20T12:38:48.079Z,29
2022-11-20T12:40:06.025Z,36
2022-11-20T12:41:23.641Z,30
2022-11-20T12:42:47.041Z,31
2022-11-20T12:44:02.484Z,32
2022-11-20T12:45:23.334Z,42
2022-11-20T12:46:33.682Z,37
2022-11-20T12:47:43.732Z,31
2022-11-20T12:49:01.843Z,29
2022-11-20T12:50:15.355Z,41
2022-11-20T12:51:28.073Z,44
2022-11-20T12:52:48.087Z,44
2022-11-20T12:54:00.494Z,42
2022-11-20T12:55:13.070Z,25
2022-11-20T12:56:31.117Z,38
2022-11-20T12:57:46.234Z,37
2022-11-20T12:58:58.275Z,32
2022-11-20T13:00:13.441Z,48
2022-11-20T13:01:23.251Z,33
2022-11-20T13:02:44.149Z,47
2022-11-20T13:04:06.449Z,35
2022-11-20T13:05:21.910Z,29
2022-11-20T13:06:41.041Z,31
2022-11-20T13:07:48.704Z,29
2022-11-20T13:08:56.540Z,28
2022-11-20T13:10:11.652Z,31
2022-11-20T13:11:25.113Z,37
2022-11-20T13:12:38.214Z,43
2022-11-20T13:13:45.428Z,43
2022-11-20T13:15:03.532Z,41
2022-11-20T13:16:21.082Z,44
2022-11-20T13:17:37.579Z,45
2022-11-20T13:18:53.869Z,44
2022-11-20T13:20:02.012Z,42
2022-11-20T13:21:09.372Z,38
2022-11-20T13:22:22.592Z,50
2022-11-20T13:23:38.212Z,45
2022-11-20T13:24:45.657Z,37
2022-11-20T13:25:54.241Z,41
2022-11-20T13:27:11.910Z,42
2022-11-20T13:28:19.236Z,46
2022-11-20T13:29:26.644Z,52
2022-11-20T13:30:33.796Z,42
2022-11-20T13:31:40.888Z,51
2022-11-20T13:32:49.820Z,59
2022-11-20T13:34:02.135Z,55
2022-11-20T13:35:10.224Z,62
2022-11-20T13:36:17.920Z,47
2022-11-20T13:37:29.062Z,53
2022-11-20T13:38:40.534Z,57
2022-11-20T13:39:48.613Z,64
2022-11-20T13:40:55.810Z,57
2022-11-20T13:42:03.700Z,63
2022-11-20T13:43:16.272Z,49
2022-11-20T13:44:27.206Z,58
2022-11-20T13:45:36.096Z,60
2022-11-20T13:46:43.196Z,67
2022-11-20T13:47:50.873Z,65
2022-11-20T13:48:58.081Z,65
2022-11-20T13:50:05.261Z,68
2022-11-20T13:51:12.352Z,66
2022-11-20T13:52:30.840Z,86
2022-11-20T13:53:46.697Z,90
2022-11-20T13:54:59.513Z,82
2022-11-20T13:56:17.524Z,84
2022-11-20T13:57:29.552Z,82
2022-11-20T13:58:39.979Z,100
2022-11-20T13:59:56.007Z,91
2022-11-20T14:01:04.164Z,95
2022-11-20T14:02:19.124Z,102
2022-11-20T14:03:51.019Z,92
2022-11-20T14:04:34.239Z,95
2022-11-20T14:05:42.189Z,105
2022-11-20T14:06:59.469Z,100
2022-11-20T14:08:06.613Z,97
2022-11-20T14:09:13.911Z,106
2022-11-20T14:10:31.928Z,101
2022-11-20T14:11:36.858Z,110
2022-11-20T14:12:44.491Z,104
2022-11-20T14:13:51.747Z,110
2022-11-20T14:14:59.778Z,116
2022-11-20T14:16:08.000Z,114
2022-11-20T14:17:15.591Z,111
2022-11-20T14:18:22.627Z,119
2022-11-20T14:19:29.653Z,118
2022-11-20T14:20:36.720Z,122
2022-11-20T14:21:44.208Z,121
2022-11-20T14:22:54.123Z,121
2022-11-20T14:24:01.400Z,114
2022-11-20T14:25:12.006Z,115
2022-11-20T14:26:19.279Z,129
2022-11-20T14:27:26.651Z,125
2022-11-20T14:28:33.902Z,120
2022-11-20T14:29:41.879Z,116
2022-11-20T14:30:49.358Z,117
2022-11-20T14:31:56.954Z,118
2022-11-20T14:33:04.122Z,120
2022-11-20T14:34:12.520Z,114
2022-11-20T14:35:25.435Z,122
2022-11-20T14:36:32.895Z,119
2022-11-20T14:37:40.047Z,111
2022-11-20T14:38:47.204Z,121
2022-11-20T14:39:54.414Z,122
2022-11-20T14:41:01.630Z,114
2022-11-20T14:42:11.478Z,126
2022-11-20T14:43:21.700Z,115
2022-11-20T14:44:29.439Z,115
2022-11-20T14:45:36.752Z,114
2022-11-20T14:46:43.886Z,130
2022-11-20T14:47:51.071Z,116
2022-11-20T14:48:58.966Z,110
2022-11-20T14:50:09.921Z,113
2022-11-20T14:51:15.983Z,118
2022-11-20T14:52:33.266Z,112
2022-11-20T14:53:40.453Z,123
2022-11-20T14:54:47.412Z,113
2022-11-20T14:55:58.743Z,115
2022-11-20T14:57:02.788Z,131
2022-11-20T14:58:10.318Z,114
2022-11-20T14:59:25.610Z,118
2022-11-20T15:00:33.076Z,119
2022-11-20T15:01:40.294Z,120
2022-11-20T15:02:47.518Z,127
2022-11-20T15:03:55.154Z,120
2022-11-20T15:05:10.434Z,116
2022-11-20T15:06:17.806Z,124
2022-11-20T15:07:26.558Z,125
2022-11-20T15:08:36.606Z,123
2022-11-20T15:09:44.006Z,128
2022-11-20T15:10:51.435Z,120
2022-11-20T15:11:58.542Z,121
2022-11-20T15:13:11.414Z,126
2022-11-20T15:14:16.475Z,124
2022-11-20T15:15:24.071Z,121
2022-11-20T15:16:42.542Z,121
2022-11-20T15:17:50.259Z,127
2022-11-20T15:18:57.674Z,129
2022-11-20T15:20:05.071Z,123
2022-11-20T15:21:18.234Z,133
2022-11-20T15:22:28.731Z,124
2022-11-20T15:23:36.091Z,125
2022-11-20T15:24:44.727Z,130
2022-11-20T15:25:51.759Z,129
2022-11-20T15:26:59.191Z,120
2022-11-20T15:28:06.962Z,120
2022-11-20T15:29:24.883Z,133
2022-11-20T15:30:33.574Z,130
2022-11-20T15:31:41.223Z,115
2022-11-20T15:32:48.281Z,116
2022-11-20T15:33:55.542Z,125
2022-11-20T15:35:02.471Z,117
2022-11-20T15:36:10.348Z,117
2022-11-20T15:37:17.663Z,105
2022-11-20T15:38:24.983Z,115
2022-11-20T15:39:32.880Z,98
2022-11-20T15:40:40.223Z,115
2022-11-20T15:41:47.608Z,115
2022-11-20T15:42:55.158Z,116
2022-11-20T15:44:07.388Z,108
2022-11-20T15:45:14.650Z,119
2022-11-20T15:46:21.555Z,117
2022-11-20T15:47:28.675Z,113
2022-11-20T15:48:35.914Z,122
2022-11-20T15:49:43.002Z,112
2022-11-20T15:50:50.247Z,124
2022-11-20T15:51:57.260Z,129
2022-11-20T15:53:04.534Z,114
2022-11-20T15:54:11.534Z,124
2022-11-20T15:55:21.983Z,113
2022-11-20T15:56:30.034Z,118
2022-11-20T15:57:37.125Z,121
2022-11-20T15:58:44.482Z,129
2022-11-20T15:59:52.070Z,119
2022-11-20T16:00:59.073Z,127
2022-11-20T16:02:06.334Z,118
2022-11-20T16:03:13.983Z,123
2022-11-20T16:04:22.158Z,120
2022-11-20T16:05:29.414Z,120
2022-11-20T16:06:37.911Z,121
2022-11-20T16:07:45.076Z,124
2022-11-20T16:08:52.067Z,117
2022-11-20T16:10:00.183Z,122
2022-11-20T16:11:07.514Z,119
2022-11-20T16:12:17.938Z,117
2022-11-20T16:13:30.270Z,116
2022-11-20T16:14:42.859Z,106